createdAt,value
2022-12-09T00:00:33.039Z,26.97
2022-12-09T00:03:21.717Z,27.10
2022-12-09T00:05:50.962Z,27.30
2022-12-09T00:08:18.397Z,27.23
2022-12-09T00:10:45.577Z,27.20
2022-12-09T00:13:13.123Z,27.07
2022-12-09T00:15:43.485Z,26.90
2022-12-09T00:18:11.183Z,27.13
2022-12-09T00:20:38.187Z,26.27
2022-12-09T00:23:06.111Z,26.27
2022-12-09T00:25:33.289Z,28.53
2022-12-09T00:28:00.646Z,28.20
2022-12-09T00:30:27.780Z,27.00
2022-12-09T00:32:55.267Z,27.97
2022-12-09T00:35:23.430Z,25.33
2022-12-09T00:37:50.933Z,26.50
2022-12-09T00:40:18.216Z,25.07
2022-12-09T00:42:45.437Z,26.23
2022-12-09T00:45:12.436Z,26.67
2022-12-09T00:47:40.996Z,24.57
2022-12-09T00:50:08.466Z,24.63
2022-12-09T00:52:36.380Z,27.53
2022-12-09T00:55:05.623Z,26.17
2022-12-09T00:57:33.089Z,26.90
2022-12-09T01:00:00.257Z,26.37
2022-12-09T01:02:27.635Z,28.37
2022-12-09T01:04:56.419Z,26.40
2022-12-09T01:07:23.776Z,27.23
2022-12-09T01:09:50.832Z,27.03
2022-12-09T01:12:17.994Z,27.27
2022-12-09T01:14:45.047Z,26.97
2022-12-09T01:17:12.460Z,26.27
2022-12-09T01:19:40.430Z,26.80
2022-12-09T01:22:07.813Z,27.23
2022-12-09T01:24:34.841Z,27.13
2022-12-09T01:27:02.420Z,27.00
2022-12-09T01:29:29.436Z,26.27
2022-12-09T01:31:56.822Z,27.90
2022-12-09T01:34:25.733Z,28.07
2022-12-09T01:36:53.316Z,26.53
2022-12-09T01:39:20.569Z,26.87
2022-12-09T01:41:49.726Z,29.30
2022-12-09T01:44:25.598Z,29.00
2022-12-09T01:46:56.070Z,27.27
2022-12-09T01:49:34.310Z,29.37
2022-12-09T01:52:16.439Z,28.47
2022-12-09T01:54:46.065Z,26.40
2022-12-09T01:57:15.812Z,25.53
2022-12-09T01:59:44.770Z,26.53
2022-12-09T02:02:16.911Z,28.83
2022-12-09T02:04:48.693Z,28.23
2022-12-09T02:07:18.827Z,28.13
2022-12-09T02:09:46.161Z,28.07
2022-12-09T02:12:13.566Z,28.57
2022-12-09T02:15:15.184Z,29.40
2022-12-09T02:17:54.490Z,32.60
2022-12-09T02:20:36.723Z,30.07
2022-12-09T02:23:24.403Z,31.40
2022-12-09T02:26:05.667Z,31.30
2022-12-09T02:29:06.926Z,31.23
2022-12-09T02:31:55.135Z,30.30
2022-12-09T02:34:28.821Z,28.93
2022-12-09T02:37:07.035Z,31.07
2022-12-09T02:39:46.589Z,33.70
2022-12-09T02:42:17.060Z,33.70
2022-12-09T02:44:49.494Z,33.90
2022-12-09T02:47:25.230Z,32.87
2022-12-09T02:49:58.065Z,31.67
2022-12-09T02:52:28.265Z,30.40
2022-12-09T02:54:58.520Z,32.67
2022-12-09T02:57:29.080Z,29.93
2022-12-09T02:59:56.848Z,32.70
2022-12-09T03:02:34.668Z,31.00
2022-12-09T03:05:34.193Z,30.23
2022-12-09T03:08:36.855Z,33.23
2022-12-09T03:11:14.343Z,33.00
2022-12-09T03:13:41.328Z,35.20
2022-12-09T03:16:19.508Z,34.70
2022-12-09T03:18:52.813Z,35.83
2022-12-09T03:21:23.551Z,32.07
2022-12-09T03:23:52.674Z,33.00
2022-12-09T03:26:20.682Z,34.03
2022-12-09T03:28:50.699Z,36.60
2022-12-09T03:31:21.952Z,41.00
2022-12-09T03:33:52.826Z,40.73
2022-12-09T03:36:22.580Z,40.23
2022-12-09T03:38:51.964Z,42.20
2022-12-09T03:41:28.066Z,39.97
2022-12-09T03:44:05.233Z,38.87
2022-12-09T03:46:33.008Z,37.57
2022-12-09T03:49:00.471Z,41.50
2022-12-09T03:51:44.466Z,37.67
2022-12-09T03:54:21.593Z,36.57
2022-12-09T03:56:53.231Z,34.83
2022-12-09T03:59:22.003Z,34.37
2022-12-09T04:01:49.794Z,32.30
2022-12-09T04:04:17.476Z,34.77
2022-12-09T04:06:45.400Z,35.07
2022-12-09T04:09:12.622Z,34.60
2022-12-09T04:11:39.860Z,34.57
2022-12-09T04:14:11.894Z,32.90
2022-12-09T04:16:42.934Z,34.13
2022-12-09T04:19:10.312Z,31.77
2022-12-09T04:21:37.967Z,31.60
2022-12-09T04:24:05.186Z,32.07
2022-12-09T04:26:32.416Z,32.13
2022-12-09T04:28:59.727Z,32.93
2022-12-09T04:31:27.487Z,32.33
2022-12-09T04:33:54.427Z,33.33
2022-12-09T04:36:21.794Z,34.40
2022-12-09T04:38:51.084Z,34.13
2022-12-09T04:41:18.484Z,34.07
2022-12-09T04:43:45.675Z,36.03
2022-12-09T04:46:16.383Z,37.27
2022-12-09T04:48:44.436Z,38.50
2022-12-09T04:51:13.744Z,38.27
2022-12-09T04:53:41.419Z,35.87
2022-12-09T04:56:19.107Z,36.53
2022-12-09T04:58:46.939Z,38.13
2022-12-09T05:01:18.299Z,36.67
2022-12-09T05:03:50.943Z,36.50
2022-12-09T05:06:20.806Z,38.37
2022-12-09T05:08:48.577Z,35.60
2022-12-09T05:11:18.023Z,36.13
2022-12-09T05:13:45.974Z,37.47
2022-12-09T05:16:17.153Z,36.13
2022-12-09T05:18:45.733Z,38.73
2022-12-09T05:21:16.528Z,39.70
2022-12-09T05:23:43.900Z,41.97
2022-12-09T05:26:14.582Z,42.10
2022-12-09T05:28:42.272Z,43.70
2022-12-09T05:31:12.368Z,40.80
2022-12-09T05:33:39.730Z,37.90
2022-12-09T05:36:11.813Z,37.53
2022-12-09T05:38:39.243Z,39.07
2022-12-09T05:41:07.289Z,37.03
2022-12-09T05:43:35.252Z,37.17
2022-12-09T05:46:03.626Z,40.27
2022-12-09T05:48:31.052Z,37.47
2022-12-09T05:51:23.193Z,40.40
2022-12-09T05:53:50.475Z,39.67
2022-12-09T05:56:19.101Z,39.50
2022-12-09T05:58:47.092Z,41.07
2022-12-09T06:01:15.518Z,40.20
2022-12-09T06:03:42.953Z,38.13
2022-12-09T06:06:16.830Z,41.67
2022-12-09T06:08:45.186Z,40.40
2022-12-09T06:11:23.136Z,40.30
2022-12-09T06:13:50.851Z,38.57
2022-12-09T06:16:20.704Z,38.47
2022-12-09T06:18:48.887Z,44.80
2022-12-09T06:21:18.409Z,44.63
2022-12-09T06:23:45.648Z,43.60
2022-12-09T06:26:19.612Z,42.70
2022-12-09T06:28:46.889Z,43.10
2022-12-09T06:31:14.908Z,39.53
2022-12-09T06:33:58.843Z,38.40
2022-12-09T06:36:29.148Z,41.80
2022-12-09T06:38:58.797Z,41.63
2022-12-09T06:41:28.254Z,46.90
2022-12-09T06:44:00.191Z,43.77
2022-12-09T06:46:28.656Z,51.63
2022-12-09T06:48:56.834Z,48.37
2022-12-09T06:51:26.090Z,49.23
2022-12-09T06:53:54.374Z,54.43
2022-12-09T06:56:23.140Z,54.37
2022-12-09T06:58:50.626Z,49.13
2022-12-09T07:01:20.056Z,44.80
2022-12-09T07:03:51.484Z,48.70
2022-12-09T07:06:21.909Z,43.40
2022-12-09T07:08:49.311Z,47.47
2022-12-09T07:11:16.944Z,49.40
2022-12-09T07:13:44.842Z,48.03
2022-12-09T07:16:12.102Z,46.93
2022-12-09T07:18:39.773Z,50.07
2022-12-09T07:21:13.299Z,45.27
2022-12-09T07:23:43.516Z,47.53
2022-12-09T07:26:11.937Z,43.43
2022-12-09T07:28:42.627Z,41.23
2022-12-09T07:31:21.792Z,41.87
2022-12-09T07:33:50.250Z,41.60
2022-12-09T07:36:21.198Z,39.70
2022-12-09T07:38:53.961Z,40.13
2022-12-09T07:41:21.674Z,40.07
2022-12-09T07:43:49.010Z,41.90
2022-12-09T07:46:18.459Z,46.53
2022-12-09T07:48:47.150Z,44.63
2022-12-09T07:51:15.752Z,55.07
2022-12-09T07:53:43.210Z,55.13
2022-12-09T07:56:14.797Z,57.83
2022-12-09T07:58:43.268Z,49.37
2022-12-09T08:01:14.087Z,46.07
2022-12-09T08:03:42.611Z,47.20
2022-12-09T08:06:18.744Z,48.33
2022-12-09T08:08:47.179Z,43.83
2022-12-09T08:11:20.626Z,45.20
2022-12-09T08:13:49.027Z,42.50
2022-12-09T08:16:20.392Z,37.20
2022-12-09T08:18:48.872Z,38.70
2022-12-09T08:21:23.368Z,41.90
2022-12-09T08:23:51.529Z,37.57
2022-12-09T08:26:21.413Z,37.37
2022-12-09T08:28:48.954Z,36.53
2022-12-09T08:31:22.270Z,40.07
2022-12-09T08:33:50.711Z,36.27
2022-12-09T08:36:21.067Z,36.30
2022-12-09T08:38:48.787Z,36.77
2022-12-09T08:41:17.590Z,33.73
2022-12-09T08:43:45.807Z,34.30
2022-12-09T08:46:14.197Z,33.63
2022-12-09T08:48:42.940Z,32.60
2022-12-09T08:51:12.291Z,33.70
2022-12-09T08:53:39.923Z,32.40
2022-12-09T08:56:09.486Z,33.00
2022-12-09T08:58:36.793Z,36.13
2022-12-09T09:01:04.862Z,34.43
2022-12-09T09:03:32.419Z,31.30
2022-12-09T09:06:09.711Z,31.87
2022-12-09T09:08:38.977Z,36.77
2022-12-09T09:11:12.412Z,37.07
2022-12-09T09:13:41.487Z,33.53
2022-12-09T09:16:12.460Z,37.47
2022-12-09T09:18:40.196Z,41.47
2022-12-09T09:21:09.792Z,35.47
2022-12-09T09:23:37.491Z,34.03
2022-12-09T09:26:05.590Z,30.53
2022-12-09T09:28:34.056Z,33.10
2022-12-09T09:31:03.555Z,31.67
2022-12-09T09:33:31.604Z,32.30
2022-12-09T09:36:06.878Z,33.00
2022-12-09T09:38:37.100Z,31.63
2022-12-09T09:41:34.013Z,31.07
2022-12-09T09:44:02.166Z,33.70
2022-12-09T09:46:42.412Z,34.33
2022-12-09T09:49:19.745Z,35.13
2022-12-09T09:51:47.685Z,32.20
2022-12-09T09:54:16.055Z,33.93
2022-12-09T09:56:55.144Z,35.47
2022-12-09T09:59:31.017Z,32.23
2022-12-09T10:02:04.935Z,31.57
2022-12-09T10:04:47.125Z,31.67
2022-12-09T10:07:33.742Z,31.07
2022-12-09T10:10:19.713Z,29.57
2022-12-09T10:13:06.795Z,34.77
2022-12-09T10:15:45.927Z,31.03
2022-12-09T10:18:26.001Z,31.43
2022-12-09T10:20:53.814Z,33.10
2022-12-09T10:23:22.571Z,34.03
2022-12-09T10:25:57.501Z,31.97
2022-12-09T10:28:30.704Z,30.83
2022-12-09T10:30:58.191Z,32.53
2022-12-09T10:33:39.161Z,31.90
2022-12-09T10:36:19.412Z,32.10
2022-12-09T10:38:48.773Z,31.67
2022-12-09T10:41:57.130Z,29.97
2022-12-09T10:44:26.939Z,27.47
2022-12-09T10:47:04.268Z,27.70
2022-12-09T10:49:33.387Z,29.10
2022-12-09T10:52:02.407Z,30.07
2022-12-09T10:54:39.405Z,38.10
2022-12-09T10:57:26.800Z,34.10
2022-12-09T11:00:18.952Z,33.17
2022-12-09T11:02:53.048Z,31.63
2022-12-09T11:05:29.838Z,30.50
2022-12-09T11:07:58.885Z,30.00
2022-12-09T11:10:29.645Z,31.13
2022-12-09T11:13:08.020Z,33.03
2022-12-09T11:15:41.302Z,32.73
2022-12-09T11:18:19.257Z,29.67
2022-12-09T11:21:02.484Z,28.63
2022-12-09T11:23:30.826Z,27.80
2022-12-09T11:26:01.158Z,27.07
2022-12-09T11:28:32.869Z,27.73
2022-12-09T11:31:29.550Z,29.10
2022-12-09T11:34:01.450Z,28.63
2022-12-09T11:36:35.338Z,26.60
2022-12-09T11:39:31.921Z,28.50
2022-12-09T11:42:19.634Z,29.77
2022-12-09T11:45:00.177Z,27.40
2022-12-09T11:48:21.175Z,27.93
2022-12-09T11:50:32.278Z,27.63
2022-12-09T11:53:07.868Z,24.23
2022-12-09T11:55:38.214Z,24.77
2022-12-09T11:58:10.764Z,24.47
2022-12-09T12:00:46.163Z,24.03
2022-12-09T12:03:21.370Z,23.83
2022-12-09T12:05:51.250Z,24.17
2022-12-09T12:08:32.213Z,25.77
2022-12-09T12:11:15.588Z,24.77
2022-12-09T12:13:45.921Z,26.80
2022-12-09T12:16:27.478Z,26.13
2022-12-09T12:19:05.235Z,28.07
2022-12-09T12:21:56.073Z,27.20
2022-12-09T12:25:00.534Z,25.10
2022-12-09T12:27:39.902Z,30.03
2022-12-09T12:30:30.628Z,31.63
2022-12-09T12:36:21.074Z,39.00
2022-12-09T12:39:33.053Z,38.67
2022-12-09T12:42:06.230Z,30.53
2022-12-09T12:45:17.075Z,48.63
2022-12-09T12:48:08.285Z,37.03
2022-12-09T12:51:13.962Z,26.83
2022-12-09T12:53:47.071Z,27.23
2022-12-09T12:56:25.419Z,28.97
2022-12-09T12:59:00.221Z,27.47
2022-12-09T13:01:33.059Z,31.80
2022-12-09T13:04:30.031Z,33.33
2022-12-09T13:07:06.175Z,28.27
2022-12-09T13:09:49.718Z,28.53
2022-12-09T13:12:45.333Z,26.43
2022-12-09T13:15:16.331Z,27.30
2022-12-09T13:17:45.809Z,30.70
2022-12-09T13:20:37.648Z,29.47
2022-12-09T13:23:20.669Z,28.90
2022-12-09T13:25:50.661Z,29.07
2022-12-09T13:28:27.101Z,29.17
2022-12-09T13:30:59.899Z,26.30
2022-12-09T13:33:38.826Z,26.43
2022-12-09T13:36:29.361Z,27.00
2022-12-09T13:39:00.096Z,26.70
2022-12-09T13:41:27.372Z,28.70
2022-12-09T13:43:56.705Z,30.37
2022-12-09T13:46:26.228Z,31.37
2022-12-09T13:48:54.678Z,33.13
2022-12-09T13:51:23.753Z,33.90
2022-12-09T13:53:50.653Z,35.60
2022-12-09T13:56:32.280Z,36.30
2022-12-09T13:59:33.170Z,36.13
2022-12-09T14:02:22.542Z,33.90
2022-12-09T14:05:01.626Z,34.77
2022-12-09T14:07:33.120Z,34.73
2022-12-09T14:10:01.147Z,36.60
2022-12-09T14:12:28.565Z,36.60
2022-12-09T14:15:25.968Z,36.90
2022-12-09T14:18:03.595Z,35.47
2022-12-09T14:20:34.985Z,35.47
2022-12-09T14:23:02.162Z,32.33
2022-12-09T14:25:29.307Z,31.33
2022-12-09T14:28:21.077Z,33.17
2022-12-09T14:30:51.124Z,32.27
2022-12-09T14:33:24.135Z,33.10
2022-12-09T14:35:57.204Z,43.37
2022-12-09T14:38:35.314Z,63.37
2022-12-09T14:41:33.380Z,60.60
2022-12-09T14:44:26.499Z,66.43
2022-12-09T14:47:18.695Z,62.87
2022-12-09T14:49:49.591Z,56.90
2022-12-09T14:52:30.813Z,51.40
2022-12-09T14:55:02.061Z,47.30
2022-12-09T14:57:38.126Z,44.13
2022-12-09T15:00:07.316Z,45.63
2022-12-09T15:02:34.879Z,46.77
2022-12-09T15:05:03.195Z,44.93
2022-12-09T15:07:32.802Z,43.90
2022-12-09T15:10:18.017Z,38.97
2022-12-09T15:12:49.849Z,37.03
2022-12-09T15:15:25.276Z,35.97
2022-12-09T15:17:57.399Z,37.37
2022-12-09T15:20:29.111Z,37.97
2022-12-09T15:23:22.822Z,44.63
2022-12-09T15:25:59.434Z,43.43
2022-12-09T15:28:29.946Z,46.27
2022-12-09T15:31:02.829Z,43.73
2022-12-09T15:33:38.830Z,44.83
2022-12-09T15:36:10.403Z,42.00
2022-12-09T15:38:43.853Z,55.00
2022-12-09T15:41:29.168Z,51.50
2022-12-09T15:44:01.515Z,51.23
2022-12-09T15:46:31.055Z,49.37
2022-12-09T15:49:01.316Z,55.47
2022-12-09T15:51:29.067Z,57.90
2022-12-09T15:54:00.035Z,50.23
2022-12-09T15:56:40.601Z,50.70
2022-12-09T15:59:14.021Z,50.20
2022-12-09T16:01:49.171Z,49.97
2022-12-09T16:04:22.602Z,43.63
2022-12-09T16:06:50.639Z,44.73
2022-12-09T16:09:20.430Z,44.80
2022-12-09T16:11:53.244Z,49.90
2022-12-09T16:14:22.338Z,51.57
2022-12-09T16:17:01.540Z,50.50
2022-12-09T16:19:31.536Z,51.13
2022-12-09T16:22:18.657Z,55.13
2022-12-09T16:25:13.795Z,53.30
2022-12-09T16:27:37.456Z,49.40
2022-12-09T16:30:14.205Z,47.27
2022-12-09T16:32:46.504Z,47.03
2022-12-09T16:35:40.231Z,49.17
2022-12-09T16:38:16.515Z,53.07
2022-12-09T16:40:44.023Z,74.13
2022-12-09T16:43:17.176Z,67.20
2022-12-09T16:45:53.560Z,69.97
2022-12-09T16:48:22.434Z,80.83
2022-12-09T16:50:53.312Z,60.17
2022-12-09T16:53:34.046Z,47.83
2022-12-09T16:56:02.939Z,52.43
2022-12-09T16:58:35.379Z,78.20
2022-12-09T17:01:04.611Z,77.10
2022-12-09T17:03:43.086Z,72.97
2022-12-09T17:06:14.559Z,55.70
2022-12-09T17:08:41.902Z,50.77
2022-12-09T17:11:09.609Z,46.73
2022-12-09T17:13:37.631Z,48.83
2022-12-09T17:16:06.121Z,47.07
2022-12-09T17:18:34.202Z,49.57
2022-12-09T17:21:07.007Z,49.77
2022-12-09T17:23:39.630Z,48.17
2022-12-09T17:26:09.824Z,46.87
2022-12-09T17:28:38.065Z,51.23
2022-12-09T17:31:11.267Z,57.43
2022-12-09T17:33:38.433Z,60.10
2022-12-09T17:36:06.412Z,54.90
2022-12-09T17:38:34.342Z,52.27
2022-12-09T17:41:06.994Z,49.47
2022-12-09T17:43:34.446Z,56.80
2022-12-09T17:46:03.239Z,55.10
2022-12-09T17:48:31.488Z,58.70
2022-12-09T17:50:58.877Z,58.83
2022-12-09T17:53:25.840Z,59.63
2022-12-09T17:55:53.060Z,58.80
2022-12-09T17:58:20.005Z,57.47
2022-12-09T18:00:47.985Z,54.20
2022-12-09T18:03:27.505Z,54.67
2022-12-09T18:06:00.543Z,52.97
2022-12-09T18:08:29.642Z,53.23
2022-12-09T18:10:57.055Z,52.97
2022-12-09T18:13:24.015Z,54.03
2022-12-09T18:15:54.439Z,57.73
2022-12-09T18:18:21.510Z,53.63
2022-12-09T18:20:48.870Z,58.60
2022-12-09T18:23:16.017Z,53.23
2022-12-09T18:25:43.245Z,58.20
2022-12-09T18:28:10.185Z,57.17
2022-12-09T18:30:39.674Z,54.77
2022-12-09T18:33:06.732Z,52.93
2022-12-09T18:35:34.017Z,50.70
2022-12-09T18:38:09.543Z,61.40
2022-12-09T18:41:00.666Z,60.20
2022-12-09T18:43:33.621Z,58.07
2022-12-09T18:46:03.110Z,55.10
2022-12-09T18:48:30.679Z,58.57
2022-12-09T18:50:58.593Z,57.90
2022-12-09T18:53:25.908Z,54.93
2022-12-09T18:55:53.658Z,55.93
2022-12-09T18:58:31.553Z,49.20
2022-12-09T19:01:28.979Z,50.20
2022-12-09T19:04:00.284Z,45.73
2022-12-09T19:06:28.702Z,45.43
2022-12-09T19:09:02.136Z,44.97
2022-12-09T19:11:34.664Z,48.37
2022-12-09T19:14:02.579Z,45.73
2022-12-09T19:16:30.218Z,42.67
2022-12-09T19:18:57.923Z,39.43
2022-12-09T19:21:27.230Z,41.87
2022-12-09T19:23:54.801Z,39.13
2022-12-09T19:26:29.520Z,35.90
2022-12-09T19:28:59.725Z,36.27
2022-12-09T19:31:28.291Z,36.07
2022-12-09T19:33:57.296Z,36.03
2022-12-09T19:36:26.365Z,37.37
2022-12-09T19:38:53.431Z,37.73
2022-12-09T19:41:21.209Z,38.10
2022-12-09T19:43:48.156Z,41.93
2022-12-09T19:46:15.862Z,43.93
2022-12-09T19:48:46.712Z,50.40
2022-12-09T19:51:16.267Z,47.17
2022-12-09T19:53:44.370Z,45.00
2022-12-09T19:56:19.412Z,45.57
2022-12-09T19:58:47.349Z,44.17
2022-12-09T20:01:17.374Z,40.23
2022-12-09T20:03:46.341Z,40.77
2022-12-09T20:06:16.042Z,41.57
2022-12-09T20:08:43.726Z,41.57
2022-12-09T20:11:16.470Z,40.70
2022-12-09T20:13:43.882Z,40.93
2022-12-09T20:16:14.422Z,40.60
2022-12-09T20:18:42.186Z,40.70
2022-12-09T20:21:11.631Z,41.33
2022-12-09T20:23:40.404Z,40.50
2022-12-09T20:26:19.336Z,39.43
2022-12-09T20:28:48.501Z,38.73
2022-12-09T20:31:20.742Z,36.93
2022-12-09T20:33:52.047Z,39.03
2022-12-09T20:36:21.169Z,36.13
2022-12-09T20:38:53.583Z,41.10
2022-12-09T20:41:21.372Z,40.07
2022-12-09T20:43:50.007Z,40.87
2022-12-09T20:46:26.225Z,42.37
2022-12-09T20:48:54.152Z,39.13
2022-12-09T20:51:25.635Z,40.50
2022-12-09T20:53:53.918Z,41.13
2022-12-09T20:56:22.424Z,38.67
2022-12-09T20:58:51.400Z,39.13
2022-12-09T21:01:21.124Z,41.90
2022-12-09T21:03:49.105Z,40.07
2022-12-09T21:06:18.336Z,43.70
2022-12-09T21:08:46.043Z,43.23
2022-12-09T21:11:18.956Z,39.93
2022-12-09T21:13:51.600Z,39.97
2022-12-09T21:16:22.203Z,39.70
2022-12-09T21:18:50.679Z,39.77
2022-12-09T21:21:19.166Z,38.77
2022-12-09T21:23:47.529Z,42.00
2022-12-09T21:26:16.935Z,41.20
2022-12-09T21:28:46.580Z,43.93
2022-12-09T21:31:15.247Z,41.03
2022-12-09T21:33:44.777Z,43.27
2022-12-09T21:36:15.085Z,43.57
2022-12-09T21:38:42.541Z,43.00
2022-12-09T21:41:11.963Z,44.40
2022-12-09T21:43:40.113Z,43.27
2022-12-09T21:46:23.000Z,40.47
2022-12-09T21:48:52.530Z,42.13
2022-12-09T21:51:21.157Z,41.30
2022-12-09T21:53:49.077Z,42.50
2022-12-09T21:56:21.680Z,43.27
2022-12-09T21:58:50.670Z,43.33
2022-12-09T22:01:23.333Z,44.53
2022-12-09T22:03:50.586Z,43.83
2022-12-09T22:06:17.964Z,41.57
2022-12-09T22:08:45.541Z,42.47
2022-12-09T22:11:19.286Z,42.67
2022-12-09T22:13:46.552Z,42.23
2022-12-09T22:16:20.027Z,43.23
2022-12-09T22:18:48.597Z,41.37
2022-12-09T22:21:25.325Z,43.40
2022-12-09T22:23:59.268Z,42.50
2022-12-09T22:26:27.042Z,40.47
2022-12-09T22:28:54.786Z,40.27
2022-12-09T22:31:27.121Z,42.97
2022-12-09T22:33:56.670Z,40.73
2022-12-09T22:36:23.581Z,39.13
2022-12-09T22:38:51.001Z,40.13
2022-12-09T22:41:20.810Z,41.70
2022-12-09T22:43:51.263Z,40.60
2022-12-09T22:46:21.126Z,39.60
2022-12-09T22:48:48.751Z,39.93
2022-12-09T22:51:22.703Z,37.37
2022-12-09T22:53:51.194Z,37.87
2022-12-09T22:56:18.901Z,40.00
2022-12-09T22:58:46.543Z,37.60
2022-12-09T23:01:25.682Z,39.37
2022-12-09T23:03:55.025Z,39.97
2022-12-09T23:06:22.881Z,38.27
2022-12-09T23:08:50.197Z,39.23
2022-12-09T23:11:22.952Z,37.83
2022-12-09T23:13:50.646Z,38.53
2022-12-09T23:16:20.125Z,38.97
2022-12-09T23:18:47.937Z,40.60
2022-12-09T23:21:21.217Z,39.30
2022-12-09T23:23:51.745Z,39.90
2022-12-09T23:26:23.588Z,39.67
2022-12-09T23:28:52.798Z,40.23
2022-12-09T23:31:23.027Z,40.53
2022-12-09T23:33:52.804Z,41.83
2022-12-09T23:36:22.374Z,42.20
2022-12-09T23:38:51.122Z,44.90
2022-12-09T23:41:19.419Z,43.80
2022-12-09T23:43:48.453Z,46.83
2022-12-09T23:46:18.160Z,48.90
2022-12-09T23:48:46.795Z,49.00
2022-12-09T23:51:25.789Z,50.87
2022-12-09T23:53:58.862Z,50.20
2022-12-09T23:56:29.478Z,48.57
2022-12-09T23:59:03.471Z,49.87
